createdAt,value
2023-02-28T00:04:10.173Z,-63
2023-02-28T00:09:11.434Z,-63
2023-02-28T00:14:12.578Z,-64
2023-02-28T00:19:14.281Z,-64
2023-02-28T00:24:15.488Z,-63
2023-02-28T00:29:16.663Z,-64
2023-02-28T00:34:17.885Z,-63
2023-02-28T00:39:19.105Z,-63
2023-02-28T00:44:22.471Z,-64
2023-02-28T00:49:23.681Z,-63
2023-02-28T00:54:24.921Z,-63
2023-02-28T00:59:26.113Z,-63
2023-02-28T01:04:27.322Z,-64
2023-02-28T01:09:28.544Z,-64
2023-02-28T01:14:29.697Z,-63
2023-02-28T01:19:30.903Z,-63
2023-02-28T01:24:33.630Z,-64
2023-02-28T01:29:35.590Z,-64
2023-02-28T01:34:36.763Z,-64
2023-02-28T01:39:37.958Z,-63
2023-02-28T01:44:39.116Z,-64
2023-02-28T01:49:40.283Z,-63
2023-02-28T01:54:41.489Z,-64
2023-02-28T01:59:49.932Z,-63
2023-02-28T02:04:51.367Z,-63
2023-02-28T02:09:52.593Z,-63
2023-02-28T02:14:53.763Z,-63
2023-02-28T02:19:55.378Z,-64
2023-02-28T02:24:56.556Z,-63
2023-02-28T02:29:57.754Z,-63
2023-02-28T02:34:58.905Z,-63
2023-02-28T02:40:00.148Z,-63
2023-02-28T02:45:01.383Z,-64
2023-02-28T02:50:03.075Z,-63
2023-02-28T02:55:04.347Z,-64
2023-02-28T03:00:06.130Z,-63
2023-02-28T03:05:07.278Z,-63
2023-02-28T03:10:08.474Z,-63
2023-02-28T03:15:09.607Z,-64
2023-02-28T03:20:10.785Z,-63
2023-02-28T03:25:11.951Z,-63
2023-02-28T03:30:13.221Z,-64
2023-02-28T03:35:14.436Z,-63
2023-02-28T03:40:15.614Z,-63
2023-02-28T03:45:16.788Z,-63
2023-02-28T03:50:18.007Z,-63
2023-02-28T03:55:19.198Z,-63
2023-02-28T04:00:20.426Z,-63
2023-02-28T04:05:21.590Z,-63
2023-02-28T04:10:22.851Z,-64
2023-02-28T04:15:25.643Z,-64
2023-02-28T04:20:26.896Z,-63
2023-02-28T04:25:28.121Z,-63
2023-02-28T04:30:30.658Z,-63
2023-02-28T04:35:31.991Z,-63
2023-02-28T04:40:33.257Z,-63
2023-02-28T04:45:34.856Z,-63
2023-02-28T04:50:36.127Z,-63
2023-02-28T04:55:37.360Z,-63
2023-02-28T05:00:38.577Z,-64
2023-02-28T05:05:39.750Z,-63
2023-02-28T05:10:40.933Z,-63
2023-02-28T05:15:42.111Z,-63
2023-02-28T05:20:43.279Z,-63
2023-02-28T05:25:44.437Z,-64
2023-02-28T05:30:45.606Z,-63
2023-02-28T05:35:46.978Z,-63
2023-02-28T05:40:48.173Z,-64
2023-02-28T05:45:49.465Z,-63
2023-02-28T05:50:50.691Z,-64
2023-02-28T05:55:51.846Z,-63
2023-02-28T06:00:52.995Z,-63
2023-02-28T06:05:54.224Z,-63
2023-02-28T06:10:55.417Z,-63
2023-02-28T06:15:56.713Z,-63
2023-02-28T06:20:57.842Z,-64
2023-02-28T06:25:59.337Z,-64
2023-02-28T06:31:00.642Z,-64
2023-02-28T06:36:02.353Z,-64
2023-02-28T06:41:03.644Z,-64
2023-02-28T06:46:04.815Z,-64
2023-02-28T06:51:05.989Z,-64
2023-02-28T06:56:07.246Z,-66
2023-02-28T07:01:08.558Z,-63
2023-02-28T07:06:09.798Z,-64
2023-02-28T07:11:10.999Z,-64
2023-02-28T07:16:12.212Z,-63
2023-02-28T07:21:13.470Z,-64
2023-02-28T07:26:15.601Z,-64
2023-02-28T07:31:16.959Z,-63
2023-02-28T07:36:19.769Z,-63
2023-02-28T07:41:21.074Z,-63
2023-02-28T07:46:22.305Z,-68
2023-02-28T07:51:23.494Z,-67
2023-02-28T07:56:24.708Z,-68
2023-02-28T08:01:26.012Z,-67
2023-02-28T08:06:27.392Z,-63
2023-02-28T08:11:28.966Z,-64
2023-02-28T08:16:30.376Z,-64
2023-02-28T08:21:31.825Z,-64
2023-02-28T08:26:33.196Z,-62
2023-02-28T08:31:36.320Z,-63
2023-02-28T08:36:37.639Z,-63
2023-02-28T08:41:38.785Z,-63
2023-02-28T08:46:40.118Z,-63
2023-02-28T08:51:41.359Z,-63
2023-02-28T08:56:42.531Z,-64
2023-02-28T09:01:44.527Z,-63
2023-02-28T09:06:45.834Z,-63
2023-02-28T09:11:47.315Z,-63
2023-02-28T09:16:48.676Z,-63
2023-02-28T09:21:50.010Z,-64
2023-02-28T09:27:03.483Z,-64
2023-02-28T09:32:06.714Z,-64
2023-02-28T09:37:08.051Z,-64
2023-02-28T09:42:09.270Z,-64
2023-02-28T09:47:11.535Z,-64
2023-02-28T09:52:12.812Z,-64
2023-02-28T09:57:14.005Z,-64
2023-02-28T10:02:15.246Z,-64
2023-02-28T10:07:18.758Z,-64
2023-02-28T10:12:19.982Z,-64
2023-02-28T10:17:21.161Z,-66
2023-02-28T10:22:22.327Z,-64
2023-02-28T10:27:23.564Z,-64
2023-02-28T10:32:25.408Z,-65
2023-02-28T10:37:26.745Z,-65
2023-02-28T10:42:28.058Z,-65
2023-02-28T10:47:29.313Z,-64
2023-02-28T10:52:30.453Z,-65
2023-02-28T10:57:31.676Z,-64
2023-02-28T11:07:45.699Z,-65
2023-02-28T11:12:53.909Z,-65
2023-02-28T11:17:55.270Z,-65
2023-02-28T11:22:56.448Z,-65
2023-02-28T11:27:57.638Z,-65
2023-02-28T11:32:58.941Z,-65
2023-02-28T11:38:00.167Z,-65
2023-02-28T11:43:01.344Z,-68
2023-02-28T11:48:02.503Z,-65
2023-02-28T11:53:03.706Z,-63
2023-02-28T11:58:04.833Z,-65
2023-02-28T12:03:06.047Z,-65
2023-02-28T12:08:07.301Z,-65
2023-02-28T12:13:08.528Z,-65
2023-02-28T12:18:09.757Z,-66
2023-02-28T12:23:10.975Z,-64
2023-02-28T12:28:12.257Z,-65
2023-02-28T12:33:13.490Z,-65
2023-02-28T12:38:14.789Z,-66
2023-02-28T12:43:15.930Z,-66
2023-02-28T12:48:17.087Z,-65
2023-02-28T12:53:18.307Z,-66
2023-02-28T12:58:19.513Z,-66
2023-02-28T13:03:20.674Z,-66
2023-02-28T13:08:21.853Z,-65
2023-02-28T13:13:23.091Z,-65
2023-02-28T13:18:24.241Z,-66
2023-02-28T13:23:25.382Z,-67
2023-02-28T13:28:26.880Z,-68
2023-02-28T13:33:28.137Z,-67
2023-02-28T13:38:29.637Z,-69
2023-02-28T13:43:36.158Z,-66
2023-02-28T13:48:37.647Z,-68
2023-02-28T13:53:38.827Z,-65
2023-02-28T13:58:40.285Z,-66
2023-02-28T14:03:41.492Z,-65
2023-02-28T14:08:42.710Z,-67
2023-02-28T14:13:48.014Z,-67
2023-02-28T14:18:49.318Z,-67
2023-02-28T14:23:50.493Z,-66
2023-02-28T14:28:51.795Z,-69
2023-02-28T14:33:52.950Z,-66
2023-02-28T14:38:57.094Z,-66
2023-02-28T14:43:58.325Z,-66
2023-02-28T14:48:59.513Z,-66
2023-02-28T14:54:00.749Z,-66
2023-02-28T14:59:02.127Z,-66
2023-02-28T15:04:03.732Z,-63
2023-02-28T15:09:04.923Z,-63
2023-02-28T15:14:06.171Z,-68
2023-02-28T15:19:07.358Z,-66
2023-02-28T15:24:08.552Z,-64
2023-02-28T15:29:09.765Z,-64
2023-02-28T15:34:10.938Z,-64
2023-02-28T15:39:16.146Z,-64
2023-02-28T15:44:17.641Z,-65
2023-02-28T15:49:18.814Z,-65
2023-02-28T15:54:20.111Z,-65
2023-02-28T15:59:21.390Z,-65
2023-02-28T16:04:24.801Z,-68
2023-02-28T16:09:28.161Z,-69
2023-02-28T16:14:31.011Z,-69
2023-02-28T16:19:33.823Z,-69
2023-02-28T16:24:35.882Z,-67
2023-02-28T16:29:37.169Z,-67
2023-02-28T16:34:38.458Z,-68
2023-02-28T16:39:39.759Z,-68
2023-02-28T16:44:41.311Z,-69
2023-02-28T16:49:44.030Z,-69
2023-02-28T16:54:45.239Z,-62
2023-02-28T16:59:46.454Z,-64
2023-02-28T17:04:47.687Z,-63
2023-02-28T17:09:48.914Z,-64
2023-02-28T17:14:50.096Z,-64
2023-02-28T17:19:51.392Z,-64
2023-02-28T17:24:52.573Z,-64
2023-02-28T17:29:53.752Z,-64
2023-02-28T17:34:54.989Z,-64
2023-02-28T17:39:56.262Z,-64
2023-02-28T17:44:57.574Z,-63
2023-02-28T17:49:58.878Z,-64
2023-02-28T17:55:00.012Z,-64
2023-02-28T18:00:02.746Z,-64
2023-02-28T18:05:05.447Z,-64
2023-02-28T18:10:06.705Z,-64
2023-02-28T18:15:07.940Z,-64
2023-02-28T18:20:10.253Z,-63
2023-02-28T18:25:14.504Z,-64
2023-02-28T18:30:15.752Z,-63
2023-02-28T18:35:34.904Z,-64
2023-02-28T18:40:36.305Z,-63
2023-02-28T18:45:38.353Z,-64
2023-02-28T18:50:39.696Z,-63
2023-02-28T18:55:40.825Z,-63
2023-02-28T19:00:42.044Z,-67
2023-02-28T19:05:43.204Z,-64
2023-02-28T19:10:44.401Z,-64
2023-02-28T19:15:45.584Z,-64
2023-02-28T19:20:47.106Z,-64
2023-02-28T19:25:48.290Z,-64
2023-02-28T19:30:49.810Z,-64
2023-02-28T19:35:51.103Z,-64
2023-02-28T19:40:52.321Z,-64
2023-02-28T19:45:53.528Z,-64
2023-02-28T19:50:54.732Z,-64
2023-02-28T19:55:56.408Z,-63
2023-02-28T20:00:57.627Z,-64
2023-02-28T20:05:58.837Z,-63
2023-02-28T20:11:01.496Z,-63
2023-02-28T20:16:05.995Z,-63
2023-02-28T20:21:07.188Z,-64
2023-02-28T20:26:08.434Z,-64
2023-02-28T20:31:09.614Z,-64
2023-02-28T20:36:11.932Z,-63
2023-02-28T20:41:13.168Z,-63
2023-02-28T20:46:14.355Z,-63
2023-02-28T20:51:16.295Z,-64
2023-02-28T20:56:17.560Z,-63
2023-02-28T21:01:18.847Z,-64
2023-02-28T21:06:20.081Z,-64
2023-02-28T21:11:21.308Z,-65
2023-02-28T21:16:22.597Z,-64
2023-02-28T21:21:23.841Z,-64
2023-02-28T21:26:24.982Z,-63
2023-02-28T21:31:26.201Z,-64
2023-02-28T21:36:29.506Z,-63
2023-02-28T21:41:31.054Z,-63
2023-02-28T21:46:32.612Z,-65
2023-02-28T21:51:34.007Z,-64
2023-02-28T21:56:35.657Z,-64
2023-02-28T22:01:36.915Z,-64
2023-02-28T22:06:38.266Z,-66
2023-02-28T22:11:39.563Z,-62
2023-02-28T22:16:51.154Z,-63
2023-02-28T22:21:54.120Z,-63
2023-02-28T22:26:55.381Z,-63
2023-02-28T22:31:56.572Z,-63
2023-02-28T22:36:57.977Z,-63
2023-02-28T22:41:59.114Z,-64
2023-02-28T22:47:00.311Z,-63
2023-02-28T22:52:01.471Z,-63
2023-02-28T22:57:02.701Z,-63
2023-02-28T23:02:03.904Z,-63
2023-02-28T23:07:05.096Z,-63
2023-02-28T23:12:06.306Z,-63
2023-02-28T23:17:07.484Z,-63
2023-02-28T23:22:08.736Z,-63
2023-02-28T23:27:09.946Z,-63
2023-02-28T23:32:11.342Z,-63
2023-02-28T23:37:12.580Z,-63
2023-02-28T23:42:14.124Z,-64
2023-02-28T23:47:15.652Z,-63
2023-02-28T23:52:16.992Z,-63
2023-02-28T23:57:18.516Z,-63
